createdAt,value
2022-12-29T00:02:05.736Z,18.58
2022-12-29T00:04:37.993Z,18.58
2022-12-29T00:07:09.223Z,18.55
2022-12-29T00:09:39.777Z,18.51
2022-12-29T00:12:10.055Z,18.47
2022-12-29T00:15:02.008Z,18.44
2022-12-29T00:17:33.449Z,18.43
2022-12-29T00:20:22.530Z,18.43
2022-12-29T00:23:11.409Z,18.40
2022-12-29T00:26:06.051Z,18.45
2022-12-29T00:28:54.400Z,18.45
2022-12-29T00:31:43.029Z,18.44
2022-12-29T00:34:33.118Z,18.40
2022-12-29T00:37:05.159Z,18.43
2022-12-29T00:39:55.359Z,18.44
2022-12-29T00:42:43.984Z,18.40
2022-12-29T00:45:15.682Z,18.45
2022-12-29T00:47:46.652Z,18.45
2022-12-29T00:50:16.494Z,18.43
2022-12-29T00:52:48.693Z,18.40
2022-12-29T00:55:18.771Z,18.34
2022-12-29T00:57:50.688Z,18.29
2022-12-29T01:00:21.258Z,18.23
2022-12-29T01:02:51.120Z,18.20
2022-12-29T01:05:21.408Z,18.16
2022-12-29T01:07:51.611Z,18.13
2022-12-29T01:10:23.370Z,18.07
2022-12-29T01:12:55.947Z,18.00
2022-12-29T01:15:26.576Z,17.99
2022-12-29T01:17:56.566Z,17.94
2022-12-29T01:20:31.131Z,17.92
2022-12-29T01:23:01.482Z,17.87
2022-12-29T01:25:31.262Z,17.85
2022-12-29T01:28:02.544Z,17.86
2022-12-29T01:30:34.857Z,17.82
2022-12-29T01:33:05.418Z,17.82
2022-12-29T01:35:35.333Z,17.83
2022-12-29T01:38:06.342Z,17.85
2022-12-29T01:40:36.794Z,17.79
2022-12-29T01:43:10.566Z,17.78
2022-12-29T01:45:41.789Z,17.75
2022-12-29T01:48:12.907Z,17.71
2022-12-29T01:50:49.312Z,17.69
2022-12-29T01:53:27.212Z,17.65
2022-12-29T01:56:02.125Z,17.68
2022-12-29T01:58:40.364Z,17.63
2022-12-29T02:01:11.943Z,17.63
2022-12-29T02:03:42.229Z,17.62
2022-12-29T02:06:20.120Z,17.63
2022-12-29T02:08:53.331Z,17.63
2022-12-29T02:11:29.433Z,17.61
2022-12-29T02:14:03.440Z,17.61
2022-12-29T02:16:59.094Z,17.62
2022-12-29T02:19:41.505Z,17.58
2022-12-29T02:22:35.883Z,17.59
2022-12-29T02:25:24.478Z,17.59
2022-12-29T02:28:15.775Z,17.55
2022-12-29T02:30:56.019Z,17.55
2022-12-29T02:34:07.152Z,17.49
2022-12-29T02:37:06.743Z,17.46
2022-12-29T02:40:03.647Z,17.49
2022-12-29T02:43:07.904Z,17.51
2022-12-29T02:45:52.849Z,17.49
2022-12-29T02:48:46.046Z,17.55
2022-12-29T02:51:28.991Z,17.56
2022-12-29T02:54:20.390Z,17.58
2022-12-29T02:56:52.145Z,17.61
2022-12-29T02:59:23.377Z,17.55
2022-12-29T03:02:34.426Z,17.49
2022-12-29T03:05:30.347Z,17.48
2022-12-29T03:08:21.222Z,17.46
2022-12-29T03:11:30.454Z,17.44
2022-12-29T03:15:01.200Z,17.44
2022-12-29T03:17:31.768Z,17.44
2022-12-29T03:20:10.019Z,17.48
2022-12-29T03:22:47.274Z,17.46
2022-12-29T03:25:31.013Z,17.48
2022-12-29T03:28:21.870Z,17.48
2022-12-29T03:30:53.511Z,17.42
2022-12-29T03:33:28.085Z,17.42
2022-12-29T03:36:05.550Z,17.44
2022-12-29T03:39:01.099Z,17.48
2022-12-29T03:41:35.595Z,17.45
2022-12-29T03:44:09.646Z,17.46
2022-12-29T03:46:39.677Z,17.45
2022-12-29T03:49:10.670Z,17.46
2022-12-29T03:51:43.947Z,17.48
2022-12-29T03:54:15.198Z,17.53
2022-12-29T03:56:45.956Z,17.53
2022-12-29T03:59:20.413Z,17.55
2022-12-29T04:01:52.671Z,17.59
2022-12-29T04:04:23.384Z,17.66
2022-12-29T04:06:56.275Z,17.71
2022-12-29T04:09:27.439Z,17.71
2022-12-29T04:11:58.901Z,17.78
2022-12-29T04:14:30.465Z,17.82
2022-12-29T04:17:01.523Z,17.85
2022-12-29T04:19:33.629Z,17.92
2022-12-29T04:22:05.444Z,17.93
2022-12-29T04:24:36.498Z,17.90
2022-12-29T04:27:08.657Z,17.89
2022-12-29T04:30:10.120Z,17.86
2022-12-29T04:33:06.919Z,17.89
2022-12-29T04:35:38.095Z,17.89
2022-12-29T04:38:08.120Z,17.93
2022-12-29T04:40:42.106Z,17.92
2022-12-29T04:43:14.377Z,17.96
2022-12-29T04:46:08.155Z,17.96
2022-12-29T04:48:49.196Z,18.02
2022-12-29T04:51:37.856Z,17.97
2022-12-29T04:54:10.570Z,18.02
2022-12-29T04:56:41.057Z,18.07
2022-12-29T04:59:10.969Z,18.17
2022-12-29T05:01:41.657Z,18.24
2022-12-29T05:04:11.835Z,18.26
2022-12-29T05:06:42.466Z,18.26
2022-12-29T05:09:13.641Z,18.26
2022-12-29T05:11:44.849Z,18.27
2022-12-29T05:14:14.971Z,18.33
2022-12-29T05:16:46.845Z,18.38
2022-12-29T05:19:18.877Z,18.41
2022-12-29T05:21:50.073Z,18.47
2022-12-29T05:24:20.688Z,18.55
2022-12-29T05:26:51.649Z,18.51
2022-12-29T05:29:41.921Z,18.54
2022-12-29T05:32:12.941Z,18.52
2022-12-29T05:34:43.470Z,18.65
2022-12-29T05:37:14.230Z,18.72
2022-12-29T05:39:45.287Z,18.73
2022-12-29T05:42:16.520Z,18.82
2022-12-29T05:44:55.974Z,18.81
2022-12-29T05:47:46.317Z,18.79
2022-12-29T05:50:49.543Z,18.73
2022-12-29T05:53:22.817Z,18.69
2022-12-29T05:55:54.412Z,18.72
2022-12-29T05:58:24.492Z,18.76
2022-12-29T06:00:54.939Z,18.75
2022-12-29T06:03:25.816Z,18.72
2022-12-29T06:05:58.729Z,18.69
2022-12-29T06:08:29.963Z,18.61
2022-12-29T06:11:00.290Z,18.55
2022-12-29T06:13:30.916Z,18.47
2022-12-29T06:16:02.607Z,18.40
2022-12-29T06:18:32.953Z,18.36
2022-12-29T06:21:09.459Z,18.30
2022-12-29T06:23:40.349Z,18.26
2022-12-29T06:26:10.522Z,18.24
2022-12-29T06:28:41.003Z,18.21
2022-12-29T06:31:14.152Z,18.14
2022-12-29T06:33:49.581Z,18.10
2022-12-29T06:36:22.169Z,18.02
2022-12-29T06:38:54.541Z,17.93
2022-12-29T06:41:31.992Z,17.89
2022-12-29T06:44:26.953Z,17.82
2022-12-29T06:47:09.884Z,17.86
2022-12-29T06:49:41.257Z,17.81
2022-12-29T06:52:13.209Z,17.79
2022-12-29T06:54:44.537Z,17.76
2022-12-29T06:57:14.573Z,17.76
2022-12-29T06:59:44.791Z,17.66
2022-12-29T07:02:16.548Z,17.68
2022-12-29T07:04:47.235Z,17.61
2022-12-29T07:07:17.676Z,17.61
2022-12-29T07:09:48.897Z,17.58
2022-12-29T07:12:19.166Z,17.49
2022-12-29T07:14:49.541Z,17.48
2022-12-29T07:17:19.752Z,17.45
2022-12-29T07:19:50.038Z,17.42
2022-12-29T07:22:20.206Z,17.46
2022-12-29T07:24:50.057Z,17.49
2022-12-29T07:27:20.139Z,17.45
2022-12-29T07:29:50.836Z,17.45
2022-12-29T07:32:23.188Z,17.44
2022-12-29T07:34:53.764Z,17.39
2022-12-29T07:37:23.485Z,17.39
2022-12-29T07:39:53.737Z,17.35
2022-12-29T07:42:23.680Z,17.31
2022-12-29T07:44:55.602Z,17.25
2022-12-29T07:47:46.016Z,17.20
2022-12-29T07:50:17.444Z,17.21
2022-12-29T07:52:50.845Z,17.21
2022-12-29T07:55:22.640Z,17.15
2022-12-29T07:57:56.650Z,17.13
2022-12-29T08:00:26.824Z,17.11
2022-12-29T08:02:57.646Z,17.06
2022-12-29T08:05:28.174Z,17.07
2022-12-29T08:07:58.221Z,17.08
2022-12-29T08:10:28.579Z,17.04
2022-12-29T08:12:58.638Z,17.06
2022-12-29T08:15:32.338Z,17.04
2022-12-29T08:18:03.703Z,17.10
2022-12-29T08:20:34.449Z,17.06
2022-12-29T08:23:06.049Z,17.07
2022-12-29T08:25:36.606Z,17.10
2022-12-29T08:28:06.412Z,17.08
2022-12-29T08:30:38.037Z,17.07
2022-12-29T08:33:09.010Z,17.03
2022-12-29T08:35:39.770Z,17.07
2022-12-29T08:38:09.507Z,17.07
2022-12-29T08:40:39.878Z,17.18
2022-12-29T08:43:10.808Z,17.25
2022-12-29T08:45:40.990Z,17.39
2022-12-29T08:48:11.162Z,17.51
2022-12-29T08:50:41.027Z,17.82
2022-12-29T08:53:12.056Z,18.17
2022-12-29T08:55:45.025Z,18.55
2022-12-29T08:58:17.518Z,18.96
2022-12-29T09:00:48.181Z,19.22
2022-12-29T09:03:31.481Z,19.39
2022-12-29T09:06:08.691Z,19.37
2022-12-29T09:08:39.349Z,19.30
2022-12-29T09:11:10.972Z,19.08
2022-12-29T09:13:41.302Z,18.98
2022-12-29T09:16:12.602Z,19.08
2022-12-29T09:18:43.432Z,19.10
2022-12-29T09:21:14.105Z,19.18
2022-12-29T09:23:44.551Z,19.26
2022-12-29T09:26:15.032Z,19.54
2022-12-29T09:28:46.435Z,19.88
2022-12-29T09:31:16.886Z,20.39
2022-12-29T09:33:47.079Z,20.72
2022-12-29T09:36:17.678Z,20.73
2022-12-29T09:38:48.553Z,21.32
2022-12-29T09:41:40.356Z,21.41
2022-12-29T09:44:25.690Z,21.44
2022-12-29T09:46:58.544Z,21.42
2022-12-29T09:49:55.647Z,21.46
2022-12-29T09:52:32.825Z,21.38
2022-12-29T09:55:17.851Z,21.37
2022-12-29T09:58:02.692Z,21.42
2022-12-29T10:00:55.438Z,21.44
2022-12-29T10:03:30.398Z,21.59
2022-12-29T10:07:27.832Z,21.66
2022-12-29T10:10:09.829Z,21.93
2022-12-29T10:13:03.471Z,22.17
2022-12-29T10:15:36.866Z,22.29
2022-12-29T10:18:22.815Z,22.65
2022-12-29T10:21:11.245Z,22.60
2022-12-29T10:23:55.358Z,22.88
2022-12-29T10:26:30.571Z,23.08
2022-12-29T10:29:08.544Z,22.99
2022-12-29T10:31:54.853Z,22.95
2022-12-29T10:34:36.874Z,23.20
2022-12-29T10:37:12.075Z,23.40
2022-12-29T10:40:00.790Z,23.46
2022-12-29T10:42:40.927Z,23.61
2022-12-29T10:45:18.029Z,23.61
2022-12-29T10:47:56.632Z,23.63
2022-12-29T10:50:28.621Z,23.66
2022-12-29T10:53:03.580Z,23.82
2022-12-29T10:55:40.850Z,23.98
2022-12-29T10:58:16.442Z,24.05
2022-12-29T11:00:54.072Z,24.09
2022-12-29T11:03:34.390Z,24.25
2022-12-29T11:06:13.174Z,24.33
2022-12-29T11:08:55.402Z,24.65
2022-12-29T11:11:28.897Z,25.08
2022-12-29T11:14:04.985Z,25.58
2022-12-29T11:16:38.182Z,25.66
2022-12-29T11:19:08.961Z,26.31
2022-12-29T11:21:46.606Z,26.51
2022-12-29T11:24:29.572Z,26.95
2022-12-29T11:27:32.335Z,27.16
2022-12-29T11:30:02.758Z,27.46
2022-12-29T11:32:32.694Z,27.25
2022-12-29T11:35:04.104Z,27.50
2022-12-29T11:37:41.152Z,28.08
2022-12-29T11:40:22.983Z,28.07
2022-12-29T11:42:58.612Z,28.21
2022-12-29T11:45:34.588Z,28.14
2022-12-29T11:48:13.536Z,28.63
2022-12-29T11:50:45.533Z,28.84
2022-12-29T11:53:30.076Z,28.60
2022-12-29T11:56:13.848Z,28.51
2022-12-29T11:58:44.645Z,28.00
2022-12-29T12:01:19.262Z,28.39
2022-12-29T12:04:06.560Z,28.63
2022-12-29T12:06:45.907Z,28.87
2022-12-29T12:09:40.100Z,29.03
2022-12-29T12:12:11.198Z,29.17
2022-12-29T12:14:49.598Z,28.55
2022-12-29T12:17:56.005Z,27.81
2022-12-29T12:20:43.788Z,28.75
2022-12-29T12:23:50.369Z,29.17
2022-12-29T12:26:58.423Z,29.25
2022-12-29T12:29:46.690Z,29.17
2022-12-29T12:32:23.676Z,29.68
2022-12-29T12:34:55.317Z,30.10
2022-12-29T12:38:11.857Z,29.65
2022-12-29T12:40:56.257Z,28.12
2022-12-29T12:44:07.423Z,26.82
2022-12-29T12:47:00.131Z,26.54
2022-12-29T12:49:37.742Z,28.01
2022-12-29T12:52:13.139Z,28.66
2022-12-29T12:54:52.773Z,27.67
2022-12-29T12:57:58.213Z,26.60
2022-12-29T13:00:30.475Z,26.12
2022-12-29T13:03:07.561Z,27.90
2022-12-29T13:06:17.679Z,27.56
2022-12-29T13:09:15.119Z,27.12
2022-12-29T13:11:48.173Z,26.77
2022-12-29T13:14:33.609Z,27.67
2022-12-29T13:17:22.009Z,26.89
2022-12-29T13:20:04.460Z,26.60
2022-12-29T13:22:42.790Z,27.86
2022-12-29T13:25:37.649Z,28.73
2022-12-29T13:28:20.395Z,29.18
2022-12-29T13:31:27.686Z,29.44
2022-12-29T13:34:24.268Z,29.37
2022-12-29T13:37:14.923Z,29.96
2022-12-29T13:39:56.589Z,30.09
2022-12-29T13:42:28.611Z,30.43
2022-12-29T13:45:17.242Z,30.60
2022-12-29T13:47:59.553Z,29.33
2022-12-29T13:50:34.341Z,28.22
2022-12-29T13:53:14.173Z,29.31
2022-12-29T13:56:09.893Z,30.10
2022-12-29T13:58:45.124Z,28.31
2022-12-29T14:01:20.188Z,27.35
2022-12-29T14:03:57.175Z,28.65
2022-12-29T14:06:32.475Z,29.61
2022-12-29T14:09:06.792Z,30.54
2022-12-29T14:11:39.823Z,30.50
2022-12-29T14:14:32.960Z,30.47
2022-12-29T14:17:15.565Z,30.19
2022-12-29T14:19:47.647Z,30.75
2022-12-29T14:22:32.718Z,30.02
2022-12-29T14:25:03.833Z,29.07
2022-12-29T14:27:33.514Z,30.09
2022-12-29T14:30:03.793Z,30.91
2022-12-29T14:32:34.201Z,30.96
2022-12-29T14:35:42.059Z,29.62
2022-12-29T14:38:32.908Z,30.16
2022-12-29T14:41:40.617Z,30.17
2022-12-29T14:44:10.914Z,29.48
2022-12-29T14:46:58.810Z,28.65
2022-12-29T14:49:35.514Z,29.59
2022-12-29T14:52:20.096Z,28.70
2022-12-29T14:54:55.229Z,29.11
2022-12-29T14:57:34.141Z,29.51
2022-12-29T15:00:33.019Z,30.30
2022-12-29T15:03:15.652Z,31.33
2022-12-29T15:05:55.086Z,31.77
2022-12-29T15:08:30.723Z,30.99
2022-12-29T15:11:22.504Z,29.11
2022-12-29T15:13:52.790Z,28.49
2022-12-29T15:16:25.453Z,29.99
2022-12-29T15:18:56.474Z,29.37
2022-12-29T15:21:37.995Z,29.43
2022-12-29T15:24:08.497Z,29.43
2022-12-29T15:26:43.473Z,31.07
2022-12-29T15:29:42.595Z,31.63
2022-12-29T15:32:23.920Z,31.14
2022-12-29T15:34:55.235Z,29.85
2022-12-29T15:37:39.360Z,29.89
2022-12-29T15:40:34.619Z,31.76
2022-12-29T15:43:30.538Z,30.37
2022-12-29T15:46:04.273Z,30.72
2022-12-29T15:48:36.048Z,31.77
2022-12-29T15:51:07.002Z,32.44
2022-12-29T15:53:38.002Z,31.78
2022-12-29T15:56:12.581Z,31.81
2022-12-29T15:58:49.959Z,31.86
2022-12-29T16:01:22.499Z,30.90
2022-12-29T16:03:54.671Z,31.30
2022-12-29T16:06:36.868Z,31.23
2022-12-29T16:09:16.969Z,30.90
2022-12-29T16:11:53.988Z,30.24
2022-12-29T16:14:36.359Z,31.69
2022-12-29T16:17:06.966Z,31.72
2022-12-29T16:19:45.980Z,31.57
2022-12-29T16:22:27.765Z,31.07
2022-12-29T16:25:05.229Z,31.26
2022-12-29T16:27:40.742Z,32.46
2022-12-29T16:30:26.521Z,33.07
2022-12-29T16:33:07.999Z,32.85
2022-12-29T16:35:47.755Z,33.00
2022-12-29T16:38:25.477Z,32.13
2022-12-29T16:40:57.757Z,31.84
2022-12-29T16:43:32.072Z,31.66
2022-12-29T16:46:02.913Z,31.45
2022-12-29T16:48:39.259Z,32.00
2022-12-29T16:51:18.253Z,32.13
2022-12-29T16:53:56.886Z,32.87
2022-12-29T16:56:31.306Z,32.06
2022-12-29T16:59:10.129Z,31.38
2022-12-29T17:01:43.780Z,31.33
2022-12-29T17:04:16.842Z,30.95
2022-12-29T17:06:47.388Z,31.81
2022-12-29T17:09:24.946Z,32.28
2022-12-29T17:12:10.910Z,32.62
2022-12-29T17:14:46.945Z,32.04
2022-12-29T17:17:47.942Z,30.99
2022-12-29T17:20:28.876Z,31.35
2022-12-29T17:23:01.550Z,31.72
2022-12-29T17:25:39.549Z,32.13
2022-12-29T17:28:23.162Z,32.29
2022-12-29T17:30:57.251Z,31.91
2022-12-29T17:33:30.276Z,31.29
2022-12-29T17:36:02.240Z,32.38
2022-12-29T17:38:39.730Z,33.10
2022-12-29T17:41:18.643Z,33.03
2022-12-29T17:43:49.295Z,32.62
2022-12-29T17:46:20.433Z,32.34
2022-12-29T17:48:54.063Z,31.39
2022-12-29T17:51:25.060Z,32.06
2022-12-29T17:53:56.520Z,31.62
2022-12-29T17:56:27.221Z,31.43
2022-12-29T17:59:05.159Z,31.94
2022-12-29T18:01:38.092Z,32.34
2022-12-29T18:04:18.006Z,31.07
2022-12-29T18:06:49.488Z,30.14
2022-12-29T18:09:20.577Z,30.82
2022-12-29T18:11:51.016Z,30.43
2022-12-29T18:14:21.704Z,29.61
2022-12-29T18:16:52.726Z,30.64
2022-12-29T18:19:23.486Z,31.23
2022-12-29T18:21:54.196Z,31.60
2022-12-29T18:24:24.449Z,31.76
2022-12-29T18:26:55.183Z,31.77
2022-12-29T18:29:24.947Z,32.20
2022-12-29T18:31:55.287Z,31.51
2022-12-29T18:34:25.095Z,30.26
2022-12-29T18:36:55.975Z,30.01
2022-12-29T18:39:29.801Z,30.34
2022-12-29T18:42:00.115Z,31.62
2022-12-29T18:44:30.059Z,31.59
2022-12-29T18:47:01.329Z,30.82
2022-12-29T18:49:32.477Z,29.83
2022-12-29T18:52:03.682Z,30.78
2022-12-29T18:54:35.725Z,31.26
2022-12-29T18:57:05.904Z,31.65
2022-12-29T18:59:36.886Z,31.26
2022-12-29T19:02:08.307Z,31.50
2022-12-29T19:04:38.383Z,31.18
2022-12-29T19:07:08.132Z,30.40
2022-12-29T19:09:39.820Z,29.30
2022-12-29T19:12:25.005Z,28.56
2022-12-29T19:14:58.344Z,29.44
2022-12-29T19:17:28.099Z,29.75
2022-12-29T19:19:59.414Z,29.78
2022-12-29T19:22:30.096Z,29.69
2022-12-29T19:25:01.053Z,29.66
2022-12-29T19:27:32.867Z,29.28
2022-12-29T19:30:03.525Z,28.96
2022-12-29T19:32:33.896Z,28.73
2022-12-29T19:35:04.516Z,28.24
2022-12-29T19:37:37.426Z,28.29
2022-12-29T19:40:14.652Z,28.45
2022-12-29T19:42:46.278Z,28.52
2022-12-29T19:45:17.856Z,28.65
2022-12-29T19:47:48.697Z,28.49
2022-12-29T19:50:19.614Z,28.31
2022-12-29T19:52:50.794Z,28.07
2022-12-29T19:55:23.799Z,27.81
2022-12-29T19:57:54.139Z,27.78
2022-12-29T20:00:25.290Z,27.49
2022-12-29T20:02:55.327Z,27.28
2022-12-29T20:05:26.207Z,27.23
2022-12-29T20:07:57.170Z,27.25
2022-12-29T20:10:27.919Z,27.18
2022-12-29T20:12:58.160Z,27.10
2022-12-29T20:15:28.865Z,27.02
2022-12-29T20:18:13.273Z,26.94
2022-12-29T20:20:44.823Z,26.87
2022-12-29T20:23:14.544Z,26.77
2022-12-29T20:25:47.009Z,26.65
2022-12-29T20:28:19.247Z,26.55
2022-12-29T20:30:57.550Z,26.45
2022-12-29T20:33:29.212Z,26.47
2022-12-29T20:36:20.988Z,26.43
2022-12-29T20:38:52.953Z,26.34
2022-12-29T20:41:24.612Z,26.16
2022-12-29T20:43:55.278Z,26.03
2022-12-29T20:46:35.067Z,25.94
2022-12-29T20:49:10.313Z,25.88
2022-12-29T20:52:05.037Z,25.86
2022-12-29T20:54:35.543Z,25.79
2022-12-29T20:57:10.778Z,25.72
2022-12-29T20:59:42.104Z,25.69
2022-12-29T21:02:24.196Z,25.64
2022-12-29T21:05:25.204Z,25.57
2022-12-29T21:07:48.408Z,25.49
2022-12-29T21:10:19.820Z,25.38
2022-12-29T21:12:50.997Z,25.24
2022-12-29T21:15:21.540Z,25.14
2022-12-29T21:17:52.192Z,25.14
2022-12-29T21:20:22.874Z,24.97
2022-12-29T21:22:53.009Z,24.88
2022-12-29T21:25:22.756Z,24.76
2022-12-29T21:27:54.544Z,24.72
2022-12-29T21:30:25.018Z,24.69
2022-12-29T21:32:55.405Z,24.63
2022-12-29T21:35:25.120Z,24.51
2022-12-29T21:37:57.125Z,24.39
2022-12-29T21:40:28.205Z,24.35
2022-12-29T21:42:59.240Z,24.22
2022-12-29T21:45:31.279Z,24.14
2022-12-29T21:48:25.240Z,23.98
2022-12-29T21:51:19.108Z,23.88
2022-12-29T21:53:49.602Z,23.82
2022-12-29T21:56:20.993Z,23.80
2022-12-29T21:59:11.333Z,23.71
2022-12-29T22:02:00.113Z,23.67
2022-12-29T22:04:48.699Z,23.46
2022-12-29T22:07:36.887Z,23.37
2022-12-29T22:10:26.619Z,23.31
2022-12-29T22:13:04.358Z,23.26
2022-12-29T22:15:37.669Z,23.16
2022-12-29T22:18:08.347Z,23.10
2022-12-29T22:20:39.398Z,23.02
2022-12-29T22:23:10.149Z,23.02
2022-12-29T22:25:41.918Z,22.92
2022-12-29T22:28:12.469Z,22.82
2022-12-29T22:30:42.870Z,22.81
2022-12-29T22:33:14.576Z,22.81
2022-12-29T22:35:44.999Z,22.75
2022-12-29T22:38:15.218Z,22.67
2022-12-29T22:40:45.280Z,22.61
2022-12-29T22:43:16.255Z,22.57
2022-12-29T22:45:47.069Z,22.50
2022-12-29T22:48:17.257Z,22.34
2022-12-29T22:50:47.560Z,22.24
2022-12-29T22:53:18.305Z,22.18
2022-12-29T22:55:48.033Z,22.13
2022-12-29T22:58:18.704Z,22.12
2022-12-29T23:00:48.451Z,22.07
2022-12-29T23:03:19.859Z,22.07
2022-12-29T23:06:05.331Z,22.00
2022-12-29T23:08:39.280Z,22.03
2022-12-29T23:11:12.699Z,21.75
2022-12-29T23:13:46.182Z,21.62
2022-12-29T23:16:18.064Z,21.62
2022-12-29T23:18:50.357Z,21.58
2022-12-29T23:21:22.532Z,21.52
2022-12-29T23:23:56.162Z,21.35
2022-12-29T23:26:31.938Z,21.15
2022-12-29T23:29:04.194Z,21.17
2022-12-29T23:31:35.064Z,21.08
2022-12-29T23:34:07.929Z,21.01
2022-12-29T23:36:39.340Z,20.84
2022-12-29T23:39:11.051Z,20.76
2022-12-29T23:41:41.414Z,20.72
2022-12-29T23:44:11.752Z,20.76
2022-12-29T23:46:43.042Z,20.65
2022-12-29T23:49:13.790Z,20.45
2022-12-29T23:51:43.545Z,20.53
2022-12-29T23:54:13.780Z,20.43
2022-12-29T23:56:44.248Z,20.33
2022-12-29T23:59:14.615Z,20.32
